Chignik, AK

1:23 PM AKDT on September 04, 2015 (GMT -0800)
Pilot Point AP, Pilot Point, | | Change Station
CLOSE
Current Station
Airport
Location: Pilot Point AP, Pilot Point,,
Elevation: 56 ft
Nearby Weather Stations

Elev 56 ft 57.58 °N, 157.57 °W | Updated 1 hour ago

Overcast
Overcast
52 °F
Feels Like 52 °F
N
20
Wind Variable Wind from West

Today
High -- | Low -- °F
--% Chance of Precip.
Yesterday
High -- | Low -- °F
Precip. -- in
7:43 AM 9:20 PM
Waning Gibbous, 56% visible
Pressure 29.92 in
Visibility 1.2 miles
Clouds Mostly Cloudy 800 ft
Overcast 1400 ft
Dew Point 50 °F
Humidity 94%
Rainfall 0.00 in
Snow Depth Not available.
UV 1 out of 12
Pollen Not available.
Air Quality Not available.
Flu Activity Not available.
SPECI PAPN 042012Z AUTO 27017KT 1 1/4SM BR BKN008 OVC014 11/10 A2992 RMK AO2 PWINO TSNO CIG 005V009 $
Pressure 29.92 in
Visibility 1.2 miles
Clouds Mostly Cloudy 800 ft
Overcast 1400 ft
Dew Point 50 °F
Humidity 94%
Rainfall 0.00 in
Snow Depth Not available.
UV 1 out of 12
Pollen Not available.
Air Quality Not available.
Flu Activity Not available.
SPECI PAPN 042012Z AUTO 27017KT 1 1/4SM BR BKN008 OVC014 11/10 A2992 RMK AO2 PWINO TSNO CIG 005V009 $

10-Day Weather Forecast

×

Almanac

Astronomy

Sep. 04, 2015 Rise Set
Actual Time
Civil Twilight
Nautical Twilight
Astronomical Twilight
Moon
Length of Visible Light
Length of Day
Tomorrow will be .
, % of the Moon is Illuminated

Today's Extremes

State Highs State Lows

Community

WunderPhotos

Upload Photos

1,852,297 photos uploaded!

WunderBlogs® & News

Nearby

Air Quality

  Air Quality AQ Index Pollutant
Not available.

Snow Depth

Station Depth Elevation

Earthquake Activity

City Distance Mag. Time & Date
Minimum magnitude displayed is 2.5.

Coastal Water Temperatures

Place Temperature

Stations

Nearby Weather Stations

Station Location Temp. Windchill Dew Point Humidity Wind Precip. Elev Updated Type